aviador You're here:

KLIC Decoded Metar

LIMON in CO, USA
Report Time2018-04-23 21:55:00
UTC Time2018-04-23 22:56:13
Flight Rules vfr VFR
Wind150° at 16 Gusting to 22 kt
W.Decomp.*RWY 16: 14.9 kt HW 5.7 kt LCW
W.Rank150° ranks 4
Current wind is above 150° avg. (9.4)
Visibility9999 m
Phenomena:N/A
Clouds:N/A
Expected CloudBase > 6,800 ft AGL from Temp-Dew spread
CeilingNone
Temp20°C (ISA +16)
Dew Point03°C (33% RH)
AAT12.8°C
QNH1017 hPa
Density Alt7,123 ft
Elevation5,348 ft
Report Wrong Elevation
Raw Report
KLIC 232155Z AUTO 15016G22KT 10SM CLR 20/03 A3003 RMK AO2 SLP136
T02000028=

Extra information for KLIC:More info

Metar Taf Metar & Taf Last 4 Metars F.Rules Stats Wind Profile Meteogram Temp Stats Airport Information Weather charts Add Link Nearby VenuesMetar ALERT Operation Metar Decoded Social comments

AIRNAV info for KLIC